sensor_id;sensor_type;location;lat;lon;timestamp;temperature;humidity
25092;DHT22;13082;52.374;4.946;2023-05-08T00:01:07;15.20;99.90
25092;DHT22;13082;52.374;4.946;2023-05-08T00:03:33;15.20;99.90
25092;DHT22;13082;52.374;4.946;2023-05-08T00:05:58;15.20;99.90
25092;DHT22;13082;52.374;4.946;2023-05-08T00:08:24;15.30;99.90
25092;DHT22;13082;52.374;4.946;2023-05-08T00:10:50;15.30;99.90
25092;DHT22;13082;52.374;4.946;2023-05-08T00:13:16;15.30;99.90
25092;DHT22;13082;52.374;4.946;2023-05-08T00:15:41;15.30;99.90
25092;DHT22;13082;52.374;4.946;2023-05-08T00:18:07;15.30;99.90
25092;DHT22;13082;52.374;4.946;2023-05-08T00:20:33;15.30;99.90
25092;DHT22;13082;52.374;4.946;2023-05-08T00:22:58;15.20;99.90
25092;DHT22;13082;52.374;4.946;2023-05-08T00:25:25;15.20;99.90
25092;DHT22;13082;52.374;4.946;2023-05-08T00:27:51;15.30;99.90
25092;DHT22;13082;52.374;4.946;2023-05-08T00:30:16;15.30;99.90
25092;DHT22;13082;52.374;4.946;2023-05-08T00:32:42;15.40;99.90
25092;DHT22;13082;52.374;4.946;2023-05-08T00:35:08;15.40;99.90
25092;DHT22;13082;52.374;4.946;2023-05-08T00:37:34;15.50;99.90
25092;DHT22;13082;52.374;4.946;2023-05-08T00:40:00;15.50;99.90
25092;DHT22;13082;52.374;4.946;2023-05-08T00:42:25;15.40;99.90
25092;DHT22;13082;52.374;4.946;2023-05-08T00:44:51;15.40;99.90
25092;DHT22;13082;52.374;4.946;2023-05-08T00:47:19;15.30;99.90
25092;DHT22;13082;52.374;4.946;2023-05-08T00:49:45;15.40;99.90
25092;DHT22;13082;52.374;4.946;2023-05-08T00:52:11;15.30;99.90
25092;DHT22;13082;52.374;4.946;2023-05-08T00:54:37;15.30;99.90
25092;DHT22;13082;52.374;4.946;2023-05-08T00:57:05;15.20;99.90
25092;DHT22;13082;52.374;4.946;2023-05-08T00:59:32;15.20;99.90
25092;DHT22;13082;52.374;4.946;2023-05-08T01:01:59;15.20;99.90
25092;DHT22;13082;52.374;4.946;2023-05-08T01:04:25;15.20;99.90
25092;DHT22;13082;52.374;4.946;2023-05-08T01:06:52;15.10;99.90
25092;DHT22;13082;52.374;4.946;2023-05-08T01:09:17;15.10;99.90
25092;DHT22;13082;52.374;4.946;2023-05-08T01:28:47;15.00;99.90
25092;DHT22;13082;52.374;4.946;2023-05-08T01:31:23;15.10;99.90
25092;DHT22;13082;52.374;4.946;2023-05-08T01:33:58;15.10;99.90
25092;DHT22;13082;52.374;4.946;2023-05-08T01:37:07;15.10;99.90
25092;DHT22;13082;52.374;4.946;2023-05-08T01:39:45;15.00;99.90
25092;DHT22;13082;52.374;4.946;2023-05-08T01:44:51;14.90;99.90
25092;DHT22;13082;52.374;4.946;2023-05-08T01:47:19;15.00;99.90
25092;DHT22;13082;52.374;4.946;2023-05-08T01:49:50;15.00;99.90
25092;DHT22;13082;52.374;4.946;2023-05-08T01:52:32;14.90;99.90
25092;DHT22;13082;52.374;4.946;2023-05-08T01:55:02;15.00;99.90
25092;DHT22;13082;52.374;4.946;2023-05-08T01:57:31;15.00;99.90
25092;DHT22;13082;52.374;4.946;2023-05-08T01:59:59;15.00;99.90
25092;DHT22;13082;52.374;4.946;2023-05-08T02:02:27;15.10;99.90
25092;DHT22;13082;52.374;4.946;2023-05-08T02:04:54;15.00;99.90
25092;DHT22;13082;52.374;4.946;2023-05-08T02:07:24;15.10;99.90
25092;DHT22;13082;52.374;4.946;2023-05-08T02:09:50;15.10;99.90
25092;DHT22;13082;52.374;4.946;2023-05-08T02:12:16;15.20;99.90
25092;DHT22;13082;52.374;4.946;2023-05-08T02:14:44;15.20;99.90
25092;DHT22;13082;52.374;4.946;2023-05-08T02:17:11;15.10;99.90
25092;DHT22;13082;52.374;4.946;2023-05-08T02:19:40;15.00;99.90
25092;DHT22;13082;52.374;4.946;2023-05-08T02:22:07;15.00;99.90
25092;DHT22;13082;52.374;4.946;2023-05-08T02:24:34;15.00;99.90
25092;DHT22;13082;52.374;4.946;2023-05-08T02:27:01;15.00;99.90
25092;DHT22;13082;52.374;4.946;2023-05-08T02:29:28;15.00;99.90
25092;DHT22;13082;52.374;4.946;2023-05-08T02:31:54;14.90;99.90
25092;DHT22;13082;52.374;4.946;2023-05-08T02:34:22;14.90;99.90
25092;DHT22;13082;52.374;4.946;2023-05-08T02:36:49;14.90;99.90
25092;DHT22;13082;52.374;4.946;2023-05-08T02:39:17;14.80;99.90
25092;DHT22;13082;52.374;4.946;2023-05-08T02:41:43;14.80;99.90
25092;DHT22;13082;52.374;4.946;2023-05-08T02:44:09;14.70;99.90
25092;DHT22;13082;52.374;4.946;2023-05-08T02:46:45;14.70;99.90
25092;DHT22;13082;52.374;4.946;2023-05-08T02:52:28;14.80;99.90
25092;DHT22;13082;52.374;4.946;2023-05-08T02:54:59;14.80;99.90
25092;DHT22;13082;52.374;4.946;2023-05-08T03:00:19;14.80;99.90
25092;DHT22;13082;52.374;4.946;2023-05-08T03:02:49;14.80;99.90
25092;DHT22;13082;52.374;4.946;2023-05-08T03:05:18;14.80;99.90
25092;DHT22;13082;52.374;4.946;2023-05-08T03:07:49;14.90;99.90
25092;DHT22;13082;52.374;4.946;2023-05-08T03:10:16;14.90;99.90
25092;DHT22;13082;52.374;4.946;2023-05-08T03:12:45;14.90;99.90
25092;DHT22;13082;52.374;4.946;2023-05-08T03:15:26;14.90;99.90
25092;DHT22;13082;52.374;4.946;2023-05-08T03:17:55;14.90;99.90
25092;DHT22;13082;52.374;4.946;2023-05-08T03:20:23;14.80;99.90
25092;DHT22;13082;52.374;4.946;2023-05-08T03:22:52;14.80;99.90
25092;DHT22;13082;52.374;4.946;2023-05-08T03:25:20;14.80;99.90
25092;DHT22;13082;52.374;4.946;2023-05-08T03:27:47;14.80;99.90
25092;DHT22;13082;52.374;4.946;2023-05-08T03:30:14;14.80;99.90
25092;DHT22;13082;52.374;4.946;2023-05-08T03:32:42;14.70;99.90
25092;DHT22;13082;52.374;4.946;2023-05-08T03:35:09;14.70;99.90
25092;DHT22;13082;52.374;4.946;2023-05-08T03:37:35;14.80;99.90
25092;DHT22;13082;52.374;4.946;2023-05-08T03:40:01;14.80;99.90
25092;DHT22;13082;52.374;4.946;2023-05-08T03:42:26;14.90;99.90
25092;DHT22;13082;52.374;4.946;2023-05-08T03:44:53;14.80;99.90
25092;DHT22;13082;52.374;4.946;2023-05-08T03:47:20;14.80;99.90
25092;DHT22;13082;52.374;4.946;2023-05-08T03:49:47;14.70;99.90
25092;DHT22;13082;52.374;4.946;2023-05-08T03:52:14;14.70;99.90
25092;DHT22;13082;52.374;4.946;2023-05-08T03:54:40;14.60;99.90
25092;DHT22;13082;52.374;4.946;2023-05-08T03:57:06;14.60;99.90
25092;DHT22;13082;52.374;4.946;2023-05-08T04:05:35;14.50;99.90
25092;DHT22;13082;52.374;4.946;2023-05-08T04:10:41;14.40;99.90
25092;DHT22;13082;52.374;4.946;2023-05-08T04:13:13;14.50;99.90
25092;DHT22;13082;52.374;4.946;2023-05-08T04:15:51;14.50;99.90
25092;DHT22;13082;52.374;4.946;2023-05-08T04:18:20;14.50;99.90
25092;DHT22;13082;52.374;4.946;2023-05-08T04:20:48;14.40;99.90
25092;DHT22;13082;52.374;4.946;2023-05-08T04:23:17;14.50;99.90
25092;DHT22;13082;52.374;4.946;2023-05-08T04:25:44;14.40;99.90
25092;DHT22;13082;52.374;4.946;2023-05-08T04:28:11;14.50;99.90
25092;DHT22;13082;52.374;4.946;2023-05-08T04:30:39;14.40;99.90
25092;DHT22;13082;52.374;4.946;2023-05-08T04:33:05;14.40;99.90
25092;DHT22;13082;52.374;4.946;2023-05-08T04:35:32;14.40;99.90
25092;DHT22;13082;52.374;4.946;2023-05-08T04:37:58;14.40;99.90
25092;DHT22;13082;52.374;4.946;2023-05-08T04:40:24;14.40;99.90
25092;DHT22;13082;52.374;4.946;2023-05-08T04:42:50;14.40;99.90
25092;DHT22;13082;52.374;4.946;2023-05-08T04:45:16;14.40;99.90
25092;DHT22;13082;52.374;4.946;2023-05-08T04:47:42;14.40;99.90
25092;DHT22;13082;52.374;4.946;2023-05-08T04:50:08;14.40;99.90
25092;DHT22;13082;52.374;4.946;2023-05-08T04:52:33;14.40;99.90
25092;DHT22;13082;52.374;4.946;2023-05-08T04:54:59;14.40;99.90
25092;DHT22;13082;52.374;4.946;2023-05-08T04:57:25;14.40;99.90
25092;DHT22;13082;52.374;4.946;2023-05-08T04:59:50;14.40;99.90
25092;DHT22;13082;52.374;4.946;2023-05-08T05:02:16;14.40;99.90
25092;DHT22;13082;52.374;4.946;2023-05-08T05:04:42;14.40;99.90
25092;DHT22;13082;52.374;4.946;2023-05-08T05:07:07;14.40;99.90
25092;DHT22;13082;52.374;4.946;2023-05-08T05:09:33;14.40;99.90
25092;DHT22;13082;52.374;4.946;2023-05-08T05:12:04;14.40;99.90
25092;DHT22;13082;52.374;4.946;2023-05-08T05:14:30;14.40;99.90
25092;DHT22;13082;52.374;4.946;2023-05-08T05:16:55;14.50;99.90
25092;DHT22;13082;52.374;4.946;2023-05-08T05:19:21;14.50;99.90
25092;DHT22;13082;52.374;4.946;2023-05-08T05:21:47;14.50;99.90
25092;DHT22;13082;52.374;4.946;2023-05-08T05:24:12;14.50;99.90
25092;DHT22;13082;52.374;4.946;2023-05-08T05:26:38;14.40;99.90
25092;DHT22;13082;52.374;4.946;2023-05-08T05:29:03;14.50;99.90
25092;DHT22;13082;52.374;4.946;2023-05-08T05:31:29;14.50;99.90
25092;DHT22;13082;52.374;4.946;2023-05-08T05:33:55;14.50;99.90
25092;DHT22;13082;52.374;4.946;2023-05-08T05:36:21;14.50;99.90
25092;DHT22;13082;52.374;4.946;2023-05-08T05:38:46;14.50;99.90
25092;DHT22;13082;52.374;4.946;2023-05-08T05:41:12;14.60;99.90
25092;DHT22;13082;52.374;4.946;2023-05-08T05:43:38;14.60;99.90
25092;DHT22;13082;52.374;4.946;2023-05-08T05:46:07;14.60;99.90
25092;DHT22;13082;52.374;4.946;2023-05-08T05:48:34;14.60;99.90
25092;DHT22;13082;52.374;4.946;2023-05-08T05:51:00;14.60;99.90
25092;DHT22;13082;52.374;4.946;2023-05-08T05:53:26;14.60;99.90
25092;DHT22;13082;52.374;4.946;2023-05-08T05:55:51;14.60;99.90
25092;DHT22;13082;52.374;4.946;2023-05-08T05:58:18;14.70;99.90
25092;DHT22;13082;52.374;4.946;2023-05-08T06:00:43;14.60;99.90
25092;DHT22;13082;52.374;4.946;2023-05-08T06:03:09;14.60;99.90
25092;DHT22;13082;52.374;4.946;2023-05-08T06:05:36;14.60;99.90
25092;DHT22;13082;52.374;4.946;2023-05-08T06:08:01;14.70;99.90
25092;DHT22;13082;52.374;4.946;2023-05-08T06:10:27;14.60;99.90
25092;DHT22;13082;52.374;4.946;2023-05-08T06:12:53;14.60;99.90
25092;DHT22;13082;52.374;4.946;2023-05-08T06:15:19;14.70;99.90
25092;DHT22;13082;52.374;4.946;2023-05-08T06:17:45;14.70;99.90
25092;DHT22;13082;52.374;4.946;2023-05-08T06:20:11;14.70;99.90
25092;DHT22;13082;52.374;4.946;2023-05-08T06:22:36;14.80;99.90
25092;DHT22;13082;52.374;4.946;2023-05-08T06:25:03;14.80;99.90
25092;DHT22;13082;52.374;4.946;2023-05-08T06:27:31;14.80;99.90
25092;DHT22;13082;52.374;4.946;2023-05-08T06:29:58;14.80;99.90
25092;DHT22;13082;52.374;4.946;2023-05-08T06:32:23;14.80;99.90
25092;DHT22;13082;52.374;4.946;2023-05-08T06:34:49;14.80;99.90
25092;DHT22;13082;52.374;4.946;2023-05-08T06:37:15;14.80;99.90
25092;DHT22;13082;52.374;4.946;2023-05-08T06:39:40;14.80;99.90
25092;DHT22;13082;52.374;4.946;2023-05-08T06:42:06;14.80;99.90
25092;DHT22;13082;52.374;4.946;2023-05-08T06:44:32;14.80;99.90
25092;DHT22;13082;52.374;4.946;2023-05-08T06:46:58;14.70;99.90
25092;DHT22;13082;52.374;4.946;2023-05-08T06:49:23;14.70;99.90
25092;DHT22;13082;52.374;4.946;2023-05-08T06:51:49;14.80;99.90
25092;DHT22;13082;52.374;4.946;2023-05-08T06:54:15;14.70;99.90
25092;DHT22;13082;52.374;4.946;2023-05-08T06:56:40;14.70;99.90
25092;DHT22;13082;52.374;4.946;2023-05-08T06:59:06;14.70;99.90
25092;DHT22;13082;52.374;4.946;2023-05-08T07:01:32;14.80;99.90
25092;DHT22;13082;52.374;4.946;2023-05-08T07:03:57;14.80;99.90
25092;DHT22;13082;52.374;4.946;2023-05-08T07:06:23;14.80;99.90
25092;DHT22;13082;52.374;4.946;2023-05-08T07:08:48;14.80;99.90
25092;DHT22;13082;52.374;4.946;2023-05-08T07:11:14;14.80;99.90
25092;DHT22;13082;52.374;4.946;2023-05-08T07:13:40;14.80;99.90
25092;DHT22;13082;52.374;4.946;2023-05-08T07:16:08;14.80;99.90
25092;DHT22;13082;52.374;4.946;2023-05-08T07:18:35;14.80;99.90
25092;DHT22;13082;52.374;4.946;2023-05-08T07:21:01;14.80;99.90
25092;DHT22;13082;52.374;4.946;2023-05-08T07:23:27;14.80;99.90
25092;DHT22;13082;52.374;4.946;2023-05-08T07:25:53;14.90;99.90
25092;DHT22;13082;52.374;4.946;2023-05-08T07:28:19;14.90;99.90
25092;DHT22;13082;52.374;4.946;2023-05-08T07:30:45;14.90;99.90
25092;DHT22;13082;52.374;4.946;2023-05-08T07:33:10;14.90;99.90
25092;DHT22;13082;52.374;4.946;2023-05-08T07:35:40;15.00;99.90
25092;DHT22;13082;52.374;4.946;2023-05-08T07:38:06;15.00;99.90
25092;DHT22;13082;52.374;4.946;2023-05-08T07:40:32;15.00;99.90
25092;DHT22;13082;52.374;4.946;2023-05-08T07:42:58;15.00;99.90
25092;DHT22;13082;52.374;4.946;2023-05-08T07:45:24;15.10;99.90
25092;DHT22;13082;52.374;4.946;2023-05-08T07:47:52;15.10;99.90
25092;DHT22;13082;52.374;4.946;2023-05-08T07:50:18;15.10;99.90
25092;DHT22;13082;52.374;4.946;2023-05-08T07:52:45;15.10;99.90
25092;DHT22;13082;52.374;4.946;2023-05-08T07:55:10;15.20;99.90
25092;DHT22;13082;52.374;4.946;2023-05-08T07:57:40;15.20;99.90
25092;DHT22;13082;52.374;4.946;2023-05-08T08:00:07;15.30;99.90
25092;DHT22;13082;52.374;4.946;2023-05-08T08:02:33;15.30;99.90
25092;DHT22;13082;52.374;4.946;2023-05-08T08:04:59;15.30;99.90
25092;DHT22;13082;52.374;4.946;2023-05-08T08:07:25;15.30;99.90
25092;DHT22;13082;52.374;4.946;2023-05-08T08:09:50;15.40;99.90
25092;DHT22;13082;52.374;4.946;2023-05-08T08:12:16;15.40;99.90
25092;DHT22;13082;52.374;4.946;2023-05-08T08:14:42;15.50;99.90
25092;DHT22;13082;52.374;4.946;2023-05-08T08:17:07;15.50;99.90
25092;DHT22;13082;52.374;4.946;2023-05-08T08:19:33;15.50;99.90
25092;DHT22;13082;52.374;4.946;2023-05-08T08:21:58;15.50;99.90
25092;DHT22;13082;52.374;4.946;2023-05-08T08:24:24;15.60;99.90
25092;DHT22;13082;52.374;4.946;2023-05-08T08:26:50;15.60;99.90
25092;DHT22;13082;52.374;4.946;2023-05-08T08:29:16;15.60;99.90
25092;DHT22;13082;52.374;4.946;2023-05-08T08:31:42;15.70;99.90
25092;DHT22;13082;52.374;4.946;2023-05-08T08:34:07;15.70;99.90
25092;DHT22;13082;52.374;4.946;2023-05-08T08:36:33;15.70;99.90
25092;DHT22;13082;52.374;4.946;2023-05-08T08:38:59;15.70;99.90
25092;DHT22;13082;52.374;4.946;2023-05-08T08:41:25;15.60;99.90
25092;DHT22;13082;52.374;4.946;2023-05-08T08:43:53;15.60;99.90
25092;DHT22;13082;52.374;4.946;2023-05-08T08:46:23;15.60;99.90
25092;DHT22;13082;52.374;4.946;2023-05-08T08:48:49;15.60;99.90
25092;DHT22;13082;52.374;4.946;2023-05-08T08:51:27;15.60;99.90
25092;DHT22;13082;52.374;4.946;2023-05-08T08:54:13;15.70;99.90
25092;DHT22;13082;52.374;4.946;2023-05-08T08:56:43;15.70;99.90
25092;DHT22;13082;52.374;4.946;2023-05-08T08:59:15;15.80;99.90
25092;DHT22;13082;52.374;4.946;2023-05-08T09:01:43;15.80;99.90
25092;DHT22;13082;52.374;4.946;2023-05-08T09:04:11;15.70;99.90
25092;DHT22;13082;52.374;4.946;2023-05-08T09:06:37;15.70;99.90
25092;DHT22;13082;52.374;4.946;2023-05-08T09:09:03;15.70;99.90
25092;DHT22;13082;52.374;4.946;2023-05-08T09:11:30;15.80;99.90
25092;DHT22;13082;52.374;4.946;2023-05-08T09:13:56;15.80;99.90
25092;DHT22;13082;52.374;4.946;2023-05-08T09:16:23;15.90;99.90
25092;DHT22;13082;52.374;4.946;2023-05-08T09:18:48;15.90;99.90
25092;DHT22;13082;52.374;4.946;2023-05-08T09:21:14;16.00;99.90
25092;DHT22;13082;52.374;4.946;2023-05-08T09:24:00;16.00;99.90
25092;DHT22;13082;52.374;4.946;2023-05-08T09:26:34;16.00;99.90
25092;DHT22;13082;52.374;4.946;2023-05-08T09:29:14;16.00;99.90
25092;DHT22;13082;52.374;4.946;2023-05-08T09:31:48;16.00;99.90
25092;DHT22;13082;52.374;4.946;2023-05-08T09:36:49;16.10;99.90
25092;DHT22;13082;52.374;4.946;2023-05-08T09:39:21;16.20;99.90
25092;DHT22;13082;52.374;4.946;2023-05-08T09:42:01;16.30;99.90
25092;DHT22;13082;52.374;4.946;2023-05-08T09:44:27;16.30;99.90
25092;DHT22;13082;52.374;4.946;2023-05-08T09:47:13;16.20;99.90
25092;DHT22;13082;52.374;4.946;2023-05-08T09:49:39;16.30;99.90
25092;DHT22;13082;52.374;4.946;2023-05-08T09:52:06;16.30;99.90
25092;DHT22;13082;52.374;4.946;2023-05-08T09:54:32;16.30;99.90
25092;DHT22;13082;52.374;4.946;2023-05-08T09:56:58;16.40;99.90
25092;DHT22;13082;52.374;4.946;2023-05-08T09:59:26;16.40;99.90
25092;DHT22;13082;52.374;4.946;2023-05-08T10:01:52;16.50;99.90
25092;DHT22;13082;52.374;4.946;2023-05-08T10:04:30;16.60;99.90
25092;DHT22;13082;52.374;4.946;2023-05-08T10:06:57;16.60;99.90
25092;DHT22;13082;52.374;4.946;2023-05-08T10:09:23;16.60;99.90
25092;DHT22;13082;52.374;4.946;2023-05-08T10:11:50;16.70;99.90
25092;DHT22;13082;52.374;4.946;2023-05-08T10:14:21;16.70;99.90
25092;DHT22;13082;52.374;4.946;2023-05-08T10:16:48;16.70;99.90
25092;DHT22;13082;52.374;4.946;2023-05-08T10:19:16;16.80;99.90
25092;DHT22;13082;52.374;4.946;2023-05-08T10:21:52;16.80;99.90
25092;DHT22;13082;52.374;4.946;2023-05-08T10:24:19;16.80;99.90
25092;DHT22;13082;52.374;4.946;2023-05-08T10:26:56;16.90;99.90
25092;DHT22;13082;52.374;4.946;2023-05-08T10:29:34;16.90;99.90
25092;DHT22;13082;52.374;4.946;2023-05-08T10:32:08;16.90;99.90
25092;DHT22;13082;52.374;4.946;2023-05-08T10:34:39;16.90;99.90
25092;DHT22;13082;52.374;4.946;2023-05-08T10:37:08;16.90;99.90
25092;DHT22;13082;52.374;4.946;2023-05-08T10:39:34;17.00;99.90
25092;DHT22;13082;52.374;4.946;2023-05-08T10:42:00;17.00;99.90
25092;DHT22;13082;52.374;4.946;2023-05-08T10:44:27;17.10;99.90
25092;DHT22;13082;52.374;4.946;2023-05-08T10:47:11;17.10;99.90
25092;DHT22;13082;52.374;4.946;2023-05-08T10:50:08;17.20;99.90
25092;DHT22;13082;52.374;4.946;2023-05-08T10:52:46;17.30;99.90
25092;DHT22;13082;52.374;4.946;2023-05-08T10:55:22;17.30;99.90
25092;DHT22;13082;52.374;4.946;2023-05-08T10:58:09;17.40;99.90
25092;DHT22;13082;52.374;4.946;2023-05-08T11:03:19;17.60;99.90
25092;DHT22;13082;52.374;4.946;2023-05-08T11:05:47;17.50;99.90
25092;DHT22;13082;52.374;4.946;2023-05-08T11:08:37;17.50;99.90
25092;DHT22;13082;52.374;4.946;2023-05-08T11:11:27;17.50;99.90
25092;DHT22;13082;52.374;4.946;2023-05-08T11:17:01;17.70;99.90
25092;DHT22;13082;52.374;4.946;2023-05-08T11:19:28;17.80;99.90
25092;DHT22;13082;52.374;4.946;2023-05-08T11:22:13;17.90;99.90
25092;DHT22;13082;52.374;4.946;2023-05-08T11:24:45;17.90;99.90
25092;DHT22;13082;52.374;4.946;2023-05-08T11:27:12;17.90;99.90
25092;DHT22;13082;52.374;4.946;2023-05-08T11:29:38;17.90;99.90
25092;DHT22;13082;52.374;4.946;2023-05-08T11:32:04;17.90;99.90
25092;DHT22;13082;52.374;4.946;2023-05-08T11:37:18;18.20;99.90
25092;DHT22;13082;52.374;4.946;2023-05-08T11:39:45;18.30;99.90
25092;DHT22;13082;52.374;4.946;2023-05-08T11:45:09;18.20;99.90
25092;DHT22;13082;52.374;4.946;2023-05-08T11:47:44;18.20;99.90
25092;DHT22;13082;52.374;4.946;2023-05-08T11:50:11;18.20;99.90
25092;DHT22;13082;52.374;4.946;2023-05-08T11:52:39;18.10;99.90
25092;DHT22;13082;52.374;4.946;2023-05-08T11:55:09;18.10;99.90
25092;DHT22;13082;52.374;4.946;2023-05-08T11:57:36;18.10;99.90
25092;DHT22;13082;52.374;4.946;2023-05-08T12:00:08;18.20;99.90
25092;DHT22;13082;52.374;4.946;2023-05-08T12:02:38;18.30;99.90
25092;DHT22;13082;52.374;4.946;2023-05-08T12:05:05;18.40;99.90
25092;DHT22;13082;52.374;4.946;2023-05-08T12:07:30;18.40;99.90
25092;DHT22;13082;52.374;4.946;2023-05-08T12:09:56;18.40;99.90
25092;DHT22;13082;52.374;4.946;2023-05-08T12:12:22;18.30;99.90
25092;DHT22;13082;52.374;4.946;2023-05-08T12:14:50;18.30;99.90
25092;DHT22;13082;52.374;4.946;2023-05-08T12:17:16;18.20;99.90
25092;DHT22;13082;52.374;4.946;2023-05-08T12:19:45;18.30;99.90
25092;DHT22;13082;52.374;4.946;2023-05-08T12:22:11;18.30;99.90
25092;DHT22;13082;52.374;4.946;2023-05-08T12:24:37;18.50;99.90
25092;DHT22;13082;52.374;4.946;2023-05-08T12:27:03;18.50;99.90
25092;DHT22;13082;52.374;4.946;2023-05-08T12:29:29;18.60;99.90
25092;DHT22;13082;52.374;4.946;2023-05-08T12:31:55;18.70;99.90
25092;DHT22;13082;52.374;4.946;2023-05-08T12:34:21;18.80;99.90
25092;DHT22;13082;52.374;4.946;2023-05-08T12:36:46;19.00;99.90
25092;DHT22;13082;52.374;4.946;2023-05-08T12:39:17;19.10;99.90
25092;DHT22;13082;52.374;4.946;2023-05-08T12:41:50;19.20;99.90
25092;DHT22;13082;52.374;4.946;2023-05-08T12:44:23;19.30;99.90
25092;DHT22;13082;52.374;4.946;2023-05-08T12:46:54;19.30;99.90
25092;DHT22;13082;52.374;4.946;2023-05-08T12:49:25;19.40;99.90
25092;DHT22;13082;52.374;4.946;2023-05-08T12:52:10;19.40;99.90
25092;DHT22;13082;52.374;4.946;2023-05-08T12:54:39;19.30;99.90
25092;DHT22;13082;52.374;4.946;2023-05-08T12:57:14;19.30;99.90
25092;DHT22;13082;52.374;4.946;2023-05-08T12:59:41;19.30;99.90
25092;DHT22;13082;52.374;4.946;2023-05-08T13:02:18;19.20;99.90
25092;DHT22;13082;52.374;4.946;2023-05-08T13:04:45;19.30;99.90
25092;DHT22;13082;52.374;4.946;2023-05-08T13:07:11;19.20;99.90
25092;DHT22;13082;52.374;4.946;2023-05-08T13:09:37;19.20;99.90
25092;DHT22;13082;52.374;4.946;2023-05-08T13:12:03;19.20;99.90
25092;DHT22;13082;52.374;4.946;2023-05-08T13:14:31;19.20;99.90
25092;DHT22;13082;52.374;4.946;2023-05-08T13:16:56;19.10;99.90
25092;DHT22;13082;52.374;4.946;2023-05-08T13:19:22;19.00;99.90
25092;DHT22;13082;52.374;4.946;2023-05-08T13:21:47;19.00;99.90
25092;DHT22;13082;52.374;4.946;2023-05-08T13:24:14;18.90;99.90
25092;DHT22;13082;52.374;4.946;2023-05-08T13:26:39;19.00;99.90
25092;DHT22;13082;52.374;4.946;2023-05-08T13:29:05;19.00;99.90
25092;DHT22;13082;52.374;4.946;2023-05-08T13:31:31;19.10;99.90
25092;DHT22;13082;52.374;4.946;2023-05-08T13:33:56;19.10;99.90
25092;DHT22;13082;52.374;4.946;2023-05-08T13:36:22;19.10;99.90
25092;DHT22;13082;52.374;4.946;2023-05-08T13:38:49;19.10;99.90
25092;DHT22;13082;52.374;4.946;2023-05-08T13:41:16;19.00;99.90
25092;DHT22;13082;52.374;4.946;2023-05-08T13:43:41;19.00;99.90
25092;DHT22;13082;52.374;4.946;2023-05-08T13:46:07;19.10;99.90
25092;DHT22;13082;52.374;4.946;2023-05-08T13:48:33;19.20;99.90
25092;DHT22;13082;52.374;4.946;2023-05-08T13:50:58;19.30;99.90
25092;DHT22;13082;52.374;4.946;2023-05-08T13:53:24;19.30;99.90
25092;DHT22;13082;52.374;4.946;2023-05-08T13:55:49;19.30;99.90
25092;DHT22;13082;52.374;4.946;2023-05-08T13:58:15;19.30;99.90
25092;DHT22;13082;52.374;4.946;2023-05-08T14:00:41;19.30;99.90
25092;DHT22;13082;52.374;4.946;2023-05-08T14:03:06;19.20;99.90
25092;DHT22;13082;52.374;4.946;2023-05-08T14:05:33;19.30;99.90
25092;DHT22;13082;52.374;4.946;2023-05-08T14:07:58;19.30;99.90
25092;DHT22;13082;52.374;4.946;2023-05-08T14:10:24;19.30;99.90
25092;DHT22;13082;52.374;4.946;2023-05-08T14:12:50;19.40;99.90
25092;DHT22;13082;52.374;4.946;2023-05-08T14:15:15;19.40;99.90
25092;DHT22;13082;52.374;4.946;2023-05-08T14:17:41;19.60;99.90
25092;DHT22;13082;52.374;4.946;2023-05-08T14:20:07;19.70;99.90
25092;DHT22;13082;52.374;4.946;2023-05-08T14:22:33;19.80;99.90
25092;DHT22;13082;52.374;4.946;2023-05-08T14:24:58;19.80;99.90
25092;DHT22;13082;52.374;4.946;2023-05-08T14:27:24;19.80;99.90
25092;DHT22;13082;52.374;4.946;2023-05-08T14:29:49;19.80;99.90
25092;DHT22;13082;52.374;4.946;2023-05-08T14:32:17;19.80;99.90
25092;DHT22;13082;52.374;4.946;2023-05-08T14:34:43;19.70;99.90
25092;DHT22;13082;52.374;4.946;2023-05-08T14:37:09;19.60;99.90
25092;DHT22;13082;52.374;4.946;2023-05-08T14:39:35;19.50;99.90
25092;DHT22;13082;52.374;4.946;2023-05-08T14:42:01;19.60;99.90
25092;DHT22;13082;52.374;4.946;2023-05-08T14:44:28;19.50;99.90
25092;DHT22;13082;52.374;4.946;2023-05-08T14:46:53;19.50;99.90
25092;DHT22;13082;52.374;4.946;2023-05-08T14:49:19;19.40;99.90
25092;DHT22;13082;52.374;4.946;2023-05-08T14:51:45;19.40;99.90
25092;DHT22;13082;52.374;4.946;2023-05-08T14:54:10;19.40;99.90
25092;DHT22;13082;52.374;4.946;2023-05-08T14:56:36;19.40;99.90
25092;DHT22;13082;52.374;4.946;2023-05-08T14:59:01;19.40;99.90
25092;DHT22;13082;52.374;4.946;2023-05-08T15:01:27;19.30;99.90
25092;DHT22;13082;52.374;4.946;2023-05-08T15:03:53;19.20;99.90
25092;DHT22;13082;52.374;4.946;2023-05-08T15:06:19;19.10;99.90
25092;DHT22;13082;52.374;4.946;2023-05-08T15:08:46;19.00;99.90
25092;DHT22;13082;52.374;4.946;2023-05-08T15:11:12;18.80;99.90
25092;DHT22;13082;52.374;4.946;2023-05-08T15:13:38;18.70;99.90
25092;DHT22;13082;52.374;4.946;2023-05-08T15:16:04;18.60;99.90
25092;DHT22;13082;52.374;4.946;2023-05-08T15:18:30;18.50;99.90
25092;DHT22;13082;52.374;4.946;2023-05-08T15:20:56;18.50;99.90
25092;DHT22;13082;52.374;4.946;2023-05-08T15:23:24;18.40;99.90
25092;DHT22;13082;52.374;4.946;2023-05-08T15:25:50;18.40;99.90
25092;DHT22;13082;52.374;4.946;2023-05-08T15:28:15;18.30;99.90
25092;DHT22;13082;52.374;4.946;2023-05-08T15:30:44;18.20;99.90
25092;DHT22;13082;52.374;4.946;2023-05-08T15:33:10;18.10;99.90
25092;DHT22;13082;52.374;4.946;2023-05-08T15:35:36;18.10;99.90
25092;DHT22;13082;52.374;4.946;2023-05-08T15:38:01;18.00;99.90
25092;DHT22;13082;52.374;4.946;2023-05-08T15:40:30;18.00;99.90
25092;DHT22;13082;52.374;4.946;2023-05-08T15:42:56;18.00;99.90
25092;DHT22;13082;52.374;4.946;2023-05-08T15:45:21;17.90;99.90
25092;DHT22;13082;52.374;4.946;2023-05-08T15:47:47;17.90;99.90
25092;DHT22;13082;52.374;4.946;2023-05-08T15:50:13;17.90;99.90
25092;DHT22;13082;52.374;4.946;2023-05-08T15:52:39;17.90;99.90
25092;DHT22;13082;52.374;4.946;2023-05-08T15:55:05;17.90;99.90
25092;DHT22;13082;52.374;4.946;2023-05-08T15:57:30;17.90;99.90
25092;DHT22;13082;52.374;4.946;2023-05-08T15:59:56;17.90;99.90
25092;DHT22;13082;52.374;4.946;2023-05-08T16:02:21;17.90;99.90
25092;DHT22;13082;52.374;4.946;2023-05-08T16:04:47;17.90;99.90
25092;DHT22;13082;52.374;4.946;2023-05-08T16:07:13;17.90;99.90
25092;DHT22;13082;52.374;4.946;2023-05-08T16:09:38;17.90;99.90
25092;DHT22;13082;52.374;4.946;2023-05-08T16:12:04;17.90;99.90
25092;DHT22;13082;52.374;4.946;2023-05-08T16:14:30;17.90;99.90
25092;DHT22;13082;52.374;4.946;2023-05-08T16:16:55;17.80;99.90
25092;DHT22;13082;52.374;4.946;2023-05-08T16:19:21;17.80;99.90
25092;DHT22;13082;52.374;4.946;2023-05-08T16:21:47;17.80;99.90